createdAt,value
2023-03-05T00:02:14.254Z,0.70
2023-03-05T00:04:46.408Z,0.70
2023-03-05T00:07:17.519Z,0.70
2023-03-05T00:09:48.335Z,0.70
2023-03-05T00:12:19.376Z,0.80
2023-03-05T00:14:50.156Z,0.70
2023-03-05T00:17:21.429Z,0.60
2023-03-05T00:19:53.764Z,0.70
2023-03-05T00:22:24.759Z,0.60
2023-03-05T00:24:55.470Z,0.60
2023-03-05T00:27:26.562Z,0.60
2023-03-05T00:29:57.438Z,0.60
2023-03-05T00:32:28.794Z,0.50
2023-03-05T00:35:01.059Z,0.50
2023-03-05T00:37:32.311Z,0.50
2023-03-05T00:40:03.097Z,0.50
2023-03-05T00:42:38.705Z,0.50
2023-03-05T00:45:12.075Z,0.50
2023-03-05T00:47:43.378Z,0.50
2023-03-05T00:50:15.680Z,0.50
2023-03-05T00:52:46.906Z,0.50
2023-03-05T00:55:17.914Z,0.50
2023-03-05T00:57:49.207Z,0.50
2023-03-05T01:00:20.483Z,0.50
2023-03-05T01:02:51.491Z,0.40
2023-03-05T01:05:23.896Z,0.40
2023-03-05T01:07:56.180Z,0.40
2023-03-05T01:10:28.146Z,0.40
2023-03-05T01:12:59.761Z,0.40
2023-03-05T01:15:30.864Z,0.30
2023-03-05T01:18:01.749Z,0.30
2023-03-05T01:20:36.066Z,0.30
2023-03-05T01:23:07.121Z,0.30
2023-03-05T01:25:38.289Z,0.30
2023-03-05T01:28:10.046Z,0.30
2023-03-05T01:30:40.933Z,0.20
2023-03-05T01:33:11.867Z,0.30
2023-03-05T01:35:44.377Z,0.20
2023-03-05T01:38:15.736Z,0.30
2023-03-05T01:40:47.333Z,0.30
2023-03-05T01:43:27.736Z,0.20
2023-03-05T01:46:34.948Z,0.20
2023-03-05T01:49:20.920Z,0.20
2023-03-05T01:52:06.502Z,0.20
2023-03-05T01:54:41.926Z,0.20
2023-03-05T01:57:18.293Z,0.20
2023-03-05T01:59:54.373Z,0.20
2023-03-05T02:02:26.445Z,0.20
2023-03-05T02:05:02.273Z,0.30
2023-03-05T02:07:38.100Z,0.30
2023-03-05T02:10:19.579Z,0.20
2023-03-05T02:12:51.980Z,0.30
2023-03-05T02:15:23.504Z,0.20
2023-03-05T02:17:54.186Z,0.20
2023-03-05T02:20:27.892Z,0.20
2023-03-05T02:22:59.842Z,0.20
2023-03-05T02:25:33.571Z,0.20
2023-03-05T02:28:09.570Z,0.20
2023-03-05T02:30:40.628Z,0.20
2023-03-05T02:33:11.593Z,0.20
2023-03-05T02:35:43.880Z,0.20
2023-03-05T02:38:17.971Z,0.10
2023-03-05T02:40:49.196Z,0.10
2023-03-05T02:43:21.488Z,0.00
2023-03-05T02:45:53.024Z,0.00
2023-03-05T02:48:24.846Z,0.00
2023-03-05T02:50:56.610Z,-0.10
2023-03-05T02:53:29.331Z,-0.10
2023-03-05T02:56:00.973Z,-0.10
2023-03-05T02:58:31.769Z,-0.20
2023-03-05T03:01:03.045Z,-0.20
2023-03-05T03:03:33.931Z,-0.20
2023-03-05T03:06:05.508Z,-0.30
2023-03-05T03:08:37.892Z,-0.30
2023-03-05T03:11:11.227Z,-0.30
2023-03-05T03:13:42.130Z,-0.40
2023-03-05T03:16:16.138Z,-0.40
2023-03-05T03:18:49.085Z,-0.40
2023-03-05T03:21:23.207Z,-0.40
2023-03-05T03:23:55.651Z,-0.40
2023-03-05T03:26:27.098Z,-0.40
2023-03-05T03:28:58.054Z,-0.40
2023-03-05T03:31:29.118Z,-0.40
2023-03-05T03:33:59.734Z,-0.40
2023-03-05T03:36:30.773Z,-0.40
2023-03-05T03:39:03.815Z,-0.40
2023-03-05T03:41:35.491Z,-0.40
2023-03-05T03:44:08.896Z,-0.40
2023-03-05T03:46:41.023Z,-0.40
2023-03-05T03:49:18.309Z,-0.50
2023-03-05T03:51:50.882Z,-0.50
2023-03-05T03:54:24.167Z,-0.50
2023-03-05T03:56:55.236Z,-0.50
2023-03-05T03:59:26.292Z,-0.50
2023-03-05T04:01:57.503Z,-0.50
2023-03-05T04:04:29.420Z,-0.50
2023-03-05T04:07:00.642Z,-0.50
2023-03-05T04:09:32.896Z,-0.50
2023-03-05T04:12:04.143Z,-0.50
2023-03-05T04:14:35.016Z,-0.50
2023-03-05T04:17:06.680Z,-0.60
2023-03-05T04:19:37.650Z,-0.50
2023-03-05T04:22:09.387Z,-0.50
2023-03-05T04:24:41.660Z,-0.50
2023-03-05T04:27:13.216Z,-0.60
2023-03-05T04:29:44.538Z,-0.50
2023-03-05T04:32:15.556Z,-0.60
2023-03-05T04:34:46.462Z,-0.60
2023-03-05T04:37:17.599Z,-0.60
2023-03-05T04:39:49.649Z,-0.60
2023-03-05T04:42:21.419Z,-0.60
2023-03-05T04:44:53.048Z,-0.60
2023-03-05T04:47:24.022Z,-0.50
2023-03-05T04:49:55.414Z,-0.60
2023-03-05T04:52:26.619Z,-0.60
2023-03-05T04:54:59.081Z,-0.60
2023-03-05T04:57:30.302Z,-0.50
2023-03-05T05:00:00.944Z,-0.50
2023-03-05T05:02:32.152Z,-0.50
2023-03-05T05:05:03.122Z,-0.50
2023-03-05T05:07:34.200Z,-0.50
2023-03-05T05:10:07.929Z,-0.60
2023-03-05T05:12:39.894Z,-0.70
2023-03-05T05:15:12.858Z,-0.70
2023-03-05T05:17:44.805Z,-0.80
2023-03-05T05:20:18.353Z,-0.80
2023-03-05T05:22:49.424Z,-0.80
2023-03-05T05:25:21.734Z,-0.70
2023-03-05T05:27:53.493Z,-0.70
2023-03-05T05:30:24.564Z,-0.70
2023-03-05T05:32:55.656Z,-0.70
2023-03-05T05:35:26.646Z,-0.60
2023-03-05T05:37:58.053Z,-0.60
2023-03-05T05:40:30.234Z,-0.60
2023-03-05T05:43:01.528Z,-0.60
2023-03-05T05:45:32.331Z,-0.60
2023-03-05T05:48:05.739Z,-0.60
2023-03-05T05:50:36.611Z,-0.50
2023-03-05T05:53:07.747Z,-0.50
2023-03-05T05:55:42.374Z,-0.50
2023-03-05T05:58:13.382Z,-0.40
2023-03-05T06:00:44.285Z,-0.50
2023-03-05T06:03:15.574Z,-0.40
2023-03-05T06:05:47.793Z,-0.40
2023-03-05T06:08:19.748Z,-0.40
2023-03-05T06:10:58.309Z,-0.30
2023-03-05T06:13:29.736Z,-0.30
2023-03-05T06:16:02.008Z,-0.30
2023-03-05T06:18:33.343Z,-0.30
2023-03-05T06:21:06.826Z,-0.20
2023-03-05T06:23:38.447Z,-0.30
2023-03-05T06:26:13.124Z,-0.30
2023-03-05T06:28:44.313Z,-0.30
2023-03-05T06:31:18.626Z,-0.30
2023-03-05T06:33:49.907Z,-0.30
2023-03-05T06:36:23.724Z,-0.30
2023-03-05T06:38:55.998Z,-0.20
2023-03-05T06:41:31.125Z,-0.20
2023-03-05T06:44:04.238Z,-0.10
2023-03-05T06:46:37.417Z,-0.10
2023-03-05T06:49:09.677Z,0.00
2023-03-05T06:51:42.511Z,0.00
2023-03-05T06:54:16.674Z,0.10
2023-03-05T06:56:49.617Z,0.20
2023-03-05T06:59:21.794Z,0.20
2023-03-05T07:01:52.812Z,0.30
2023-03-05T07:04:25.014Z,0.30
2023-03-05T07:06:55.918Z,0.30
2023-03-05T07:09:27.288Z,0.40
2023-03-05T07:11:59.491Z,0.40
2023-03-05T07:14:30.630Z,0.40
2023-03-05T07:17:01.430Z,0.50
2023-03-05T07:19:32.550Z,0.50
2023-03-05T07:22:03.234Z,0.60
2023-03-05T07:24:34.690Z,0.60
2023-03-05T07:27:07.166Z,0.70
2023-03-05T07:29:38.611Z,0.70
2023-03-05T07:32:09.809Z,0.80
2023-03-05T07:34:41.263Z,0.90
2023-03-05T07:37:12.323Z,0.90
2023-03-05T07:39:46.268Z,0.90
2023-03-05T07:42:19.150Z,0.90
2023-03-05T07:45:00.295Z,1.00
2023-03-05T07:47:31.258Z,1.00
2023-03-05T07:50:02.651Z,1.10
2023-03-05T07:52:33.691Z,1.10
2023-03-05T07:55:05.333Z,1.20
2023-03-05T07:57:39.125Z,1.10
2023-03-05T08:00:12.253Z,1.10
2023-03-05T08:02:42.975Z,1.10
2023-03-05T08:05:14.455Z,1.00
2023-03-05T08:07:45.330Z,1.00
2023-03-05T08:10:16.560Z,0.90
2023-03-05T08:12:48.908Z,0.80
2023-03-05T08:15:20.177Z,0.90
2023-03-05T08:17:51.109Z,1.00
2023-03-05T08:20:22.315Z,1.10
2023-03-05T08:22:54.280Z,1.10
2023-03-05T08:25:25.485Z,1.10
2023-03-05T08:27:57.769Z,1.10
2023-03-05T08:30:28.978Z,1.00
2023-03-05T08:33:00.077Z,1.10
2023-03-05T08:35:31.164Z,1.00
2023-03-05T08:38:01.995Z,1.00
2023-03-05T08:40:33.186Z,0.90
2023-03-05T08:43:07.523Z,0.80
2023-03-05T08:45:40.292Z,0.60
2023-03-05T08:48:11.177Z,0.60
2023-03-05T08:50:42.241Z,0.70
2023-03-05T08:53:13.183Z,0.70
2023-03-05T08:55:44.316Z,0.70
2023-03-05T08:58:16.463Z,0.60
2023-03-05T09:00:47.500Z,0.70
2023-03-05T09:03:18.477Z,0.80
2023-03-05T09:05:49.517Z,0.70
2023-03-05T09:08:21.026Z,0.80
2023-03-05T09:10:52.169Z,0.80
2023-03-05T09:13:24.700Z,0.80
2023-03-05T09:16:00.275Z,0.80
2023-03-05T09:18:32.066Z,0.80
2023-03-05T09:21:07.510Z,0.80
2023-03-05T09:23:38.331Z,0.70
2023-03-05T09:26:12.473Z,0.60
2023-03-05T09:28:45.036Z,0.70
2023-03-05T09:31:16.356Z,0.60
2023-03-05T09:33:48.507Z,0.70
2023-03-05T09:37:45.347Z,0.70
2023-03-05T09:40:20.009Z,0.80
2023-03-05T09:43:10.844Z,1.00
2023-03-05T09:45:58.856Z,1.00
2023-03-05T09:48:47.889Z,0.90
2023-03-05T09:51:26.224Z,0.90
2023-03-05T09:54:04.823Z,1.00
2023-03-05T09:56:42.493Z,1.10
2023-03-05T09:59:27.613Z,1.20
2023-03-05T10:02:04.894Z,1.20
2023-03-05T10:04:46.647Z,1.10
2023-03-05T10:07:22.904Z,1.20
2023-03-05T10:09:59.561Z,1.30
2023-03-05T10:12:42.952Z,1.60
2023-03-05T10:15:16.518Z,1.60
2023-03-05T10:18:14.540Z,1.60
2023-03-05T10:20:59.375Z,1.70
2023-03-05T10:23:52.574Z,1.70
2023-03-05T10:26:43.436Z,1.90
2023-03-05T10:29:41.419Z,2.00
2023-03-05T10:32:26.357Z,2.10
2023-03-05T10:35:25.064Z,2.20
2023-03-05T10:38:25.554Z,2.50
2023-03-05T10:40:58.143Z,2.80
2023-03-05T10:43:39.274Z,3.20
2023-03-05T10:46:18.510Z,2.80
2023-03-05T10:48:54.647Z,2.60
2023-03-05T10:51:38.089Z,2.60
2023-03-05T10:54:20.297Z,2.30
2023-03-05T10:56:51.719Z,2.30
2023-03-05T10:59:22.430Z,2.20
2023-03-05T11:02:08.708Z,2.30
2023-03-05T11:04:42.117Z,2.40
2023-03-05T11:07:39.704Z,2.50
2023-03-05T11:10:28.107Z,2.50
2023-03-05T11:13:00.822Z,2.60
2023-03-05T11:15:32.565Z,2.70
2023-03-05T11:18:21.211Z,2.60
2023-03-05T11:20:53.262Z,2.50
2023-03-05T11:23:26.460Z,2.50
2023-03-05T11:26:02.820Z,2.50
2023-03-05T11:28:38.096Z,2.40
2023-03-05T11:31:24.578Z,2.60
2023-03-05T11:34:04.299Z,2.80
2023-03-05T11:36:36.359Z,2.80
2023-03-05T11:39:19.641Z,3.10
2023-03-05T11:41:53.991Z,2.90
2023-03-05T11:44:29.841Z,2.70
2023-03-05T11:47:05.815Z,2.40
2023-03-05T11:49:46.415Z,2.30
2023-03-05T11:52:23.609Z,2.30
2023-03-05T11:55:03.957Z,2.20
2023-03-05T11:57:45.158Z,2.20
2023-03-05T12:00:19.785Z,2.30
2023-03-05T12:02:56.069Z,1.70
2023-03-05T12:05:28.530Z,1.70
2023-03-05T12:08:03.237Z,1.70
2023-03-05T12:10:35.775Z,1.60
2023-03-05T12:13:16.551Z,1.50
2023-03-05T12:16:01.553Z,1.30
2023-03-05T12:18:53.799Z,1.00
2023-03-05T12:21:35.049Z,1.10
2023-03-05T12:24:40.031Z,1.20
2023-03-05T12:27:32.604Z,1.40
2023-03-05T12:30:04.281Z,1.50
2023-03-05T12:32:55.076Z,1.60
2023-03-05T12:35:38.346Z,1.80
2023-03-05T12:38:32.516Z,2.10
2023-03-05T12:41:44.873Z,1.90
2023-03-05T12:44:35.659Z,2.10
2023-03-05T12:47:23.849Z,2.00
2023-03-05T12:49:55.137Z,2.00
2023-03-05T12:52:31.054Z,2.10
2023-03-05T12:55:23.799Z,2.20
2023-03-05T12:58:00.032Z,2.40
2023-03-05T13:00:41.971Z,2.30
2023-03-05T13:03:19.710Z,2.40
2023-03-05T13:05:54.562Z,2.40
2023-03-05T13:08:28.563Z,2.40
2023-03-05T13:11:02.904Z,2.40
2023-03-05T13:13:38.684Z,2.40
2023-03-05T13:16:19.963Z,2.50
2023-03-05T13:18:52.494Z,2.50
2023-03-05T13:21:29.183Z,2.50
2023-03-05T13:24:02.634Z,2.50
2023-03-05T13:26:41.235Z,2.40
2023-03-05T13:29:15.613Z,2.30
2023-03-05T13:31:50.516Z,2.30
2023-03-05T13:34:26.537Z,2.00
2023-03-05T13:37:03.233Z,1.80
2023-03-05T13:39:39.283Z,1.70
2023-03-05T13:42:20.205Z,1.60
2023-03-05T13:44:57.233Z,1.60
2023-03-05T13:47:33.244Z,1.50
2023-03-05T13:50:07.236Z,1.60
2023-03-05T13:52:40.367Z,1.50
2023-03-05T13:55:18.047Z,1.60
2023-03-05T13:57:53.142Z,1.60
2023-03-05T14:00:34.104Z,1.60
2023-03-05T14:03:23.059Z,1.60
2023-03-05T14:05:55.387Z,1.80
2023-03-05T14:08:28.504Z,1.80
2023-03-05T14:11:01.462Z,1.80
2023-03-05T14:13:33.813Z,1.30
2023-03-05T14:16:09.735Z,1.50
2023-03-05T14:18:58.270Z,1.40
2023-03-05T14:21:47.212Z,1.50
2023-03-05T14:24:27.104Z,1.50
2023-03-05T14:26:59.921Z,1.50
2023-03-05T14:29:31.854Z,1.60
2023-03-05T14:32:07.807Z,2.30
2023-03-05T14:34:43.154Z,1.70
2023-03-05T14:37:24.808Z,1.20
2023-03-05T14:39:59.561Z,1.30
2023-03-05T14:42:35.250Z,1.50
2023-03-05T14:45:15.014Z,1.40
2023-03-05T14:47:46.849Z,1.30
2023-03-05T14:50:23.460Z,1.30
2023-03-05T14:52:58.540Z,1.60
2023-03-05T14:55:32.906Z,1.60
2023-03-05T14:58:06.101Z,1.60
2023-03-05T15:00:37.309Z,1.60
2023-03-05T15:03:08.252Z,1.60
2023-03-05T15:05:42.181Z,1.50
2023-03-05T15:08:16.289Z,1.50
2023-03-05T15:10:47.548Z,1.50
2023-03-05T15:13:19.618Z,1.40
2023-03-05T15:15:52.815Z,1.60
2023-03-05T15:18:24.734Z,1.60
2023-03-05T15:20:59.094Z,1.40
2023-03-05T15:23:35.524Z,1.30
2023-03-05T15:26:10.009Z,1.30
2023-03-05T15:28:41.820Z,1.40
2023-03-05T15:31:13.472Z,1.40
2023-03-05T15:33:44.081Z,1.30
2023-03-05T15:36:16.854Z,1.20
2023-03-05T15:38:48.269Z,1.10
2023-03-05T15:41:22.513Z,1.10
2023-03-05T15:43:53.422Z,1.00
2023-03-05T15:46:25.118Z,1.00
2023-03-05T15:49:53.316Z,0.90
2023-03-05T15:52:26.237Z,0.90
2023-03-05T15:54:57.536Z,0.90
2023-03-05T15:57:29.221Z,0.90
2023-03-05T15:59:59.964Z,0.80
2023-03-05T16:02:31.198Z,0.80
2023-03-05T16:05:02.112Z,0.90
2023-03-05T16:07:38.431Z,0.90
2023-03-05T16:10:14.863Z,0.80
2023-03-05T16:12:49.928Z,0.70
2023-03-05T16:15:23.296Z,0.60
2023-03-05T16:17:58.975Z,0.50
2023-03-05T16:20:29.852Z,0.40
2023-03-05T16:23:03.171Z,0.40
2023-03-05T16:25:34.410Z,0.40
2023-03-05T16:28:05.701Z,0.30
2023-03-05T16:30:36.607Z,0.30
2023-03-05T16:33:07.593Z,0.30
2023-03-05T16:35:38.393Z,0.30
2023-03-05T16:38:10.890Z,0.30
2023-03-05T16:41:06.738Z,0.20
2023-03-05T16:43:33.126Z,0.30
2023-03-05T16:46:03.987Z,0.20
2023-03-05T16:48:36.090Z,0.20
2023-03-05T16:51:07.671Z,0.20
2023-03-05T16:53:40.963Z,0.30
2023-03-05T16:56:12.536Z,0.30
2023-03-05T16:58:43.751Z,0.20
2023-03-05T17:01:17.112Z,0.20
2023-03-05T17:03:48.451Z,0.10
2023-03-05T17:06:22.523Z,0.10
2023-03-05T17:08:56.132Z,0.10
2023-03-05T17:11:27.521Z,0.00
2023-03-05T17:13:58.994Z,-0.20
2023-03-05T17:16:29.816Z,-0.20
2023-03-05T17:19:01.067Z,-0.30
2023-03-05T17:21:31.896Z,-0.30
2023-03-05T17:24:04.466Z,-0.30
2023-03-05T17:26:36.588Z,-0.40
2023-03-05T17:29:08.517Z,-0.40
2023-03-05T17:31:39.349Z,-0.50
2023-03-05T17:34:10.411Z,-0.50
2023-03-05T17:36:41.332Z,-0.50
2023-03-05T17:39:14.493Z,-0.50
2023-03-05T17:41:45.640Z,-0.60
2023-03-05T17:44:16.831Z,-0.60
2023-03-05T17:46:47.764Z,-0.70
2023-03-05T17:49:19.216Z,-0.70
2023-03-05T17:51:50.106Z,-0.70
2023-03-05T17:54:22.908Z,-0.70
2023-03-05T17:56:56.675Z,-0.80
2023-03-05T17:59:28.116Z,-0.80
2023-03-05T18:01:58.982Z,-0.90
2023-03-05T18:04:30.097Z,-0.90
2023-03-05T18:07:01.885Z,-0.90
2023-03-05T18:09:34.652Z,-0.90
2023-03-05T18:12:05.879Z,-0.90
2023-03-05T18:14:36.840Z,-0.90
2023-03-05T18:17:07.939Z,-1.00
2023-03-05T18:19:38.987Z,-1.00
2023-03-05T18:22:10.023Z,-1.00
2023-03-05T18:24:42.569Z,-1.00
2023-03-05T18:27:13.449Z,-1.10
2023-03-05T18:29:44.574Z,-1.10
2023-03-05T18:32:15.714Z,-1.10
2023-03-05T18:34:48.467Z,-1.20
2023-03-05T18:37:21.212Z,-1.20
2023-03-05T18:39:54.044Z,-1.20
2023-03-05T18:42:24.905Z,-1.20
2023-03-05T18:44:57.140Z,-1.20
2023-03-05T18:47:28.194Z,-1.20
2023-03-05T18:49:59.249Z,-1.20
2023-03-05T18:52:30.167Z,-1.20
2023-03-05T18:55:03.163Z,-1.30
2023-03-05T18:57:34.031Z,-1.30
2023-03-05T19:00:07.541Z,-1.30
2023-03-05T19:02:38.545Z,-1.30
2023-03-05T19:05:11.501Z,-1.30
2023-03-05T19:07:43.570Z,-1.30
2023-03-05T19:10:18.351Z,-1.30
2023-03-05T19:12:56.914Z,-1.30
2023-03-05T19:15:29.713Z,-1.30
2023-03-05T19:18:00.837Z,-1.30
2023-03-05T19:20:32.049Z,-1.20
2023-03-05T19:23:02.730Z,-1.30
2023-03-05T19:25:36.551Z,-1.30
2023-03-05T19:28:07.498Z,-1.30
2023-03-05T19:30:38.990Z,-1.30
2023-03-05T19:33:09.851Z,-1.30
2023-03-05T19:35:43.696Z,-1.30
2023-03-05T19:38:14.577Z,-1.30
2023-03-05T19:40:48.286Z,-1.30
2023-03-05T19:43:18.866Z,-1.30
2023-03-05T19:45:50.228Z,-1.30
2023-03-05T19:48:21.602Z,-1.30
2023-03-05T19:50:53.000Z,-1.30
2023-03-05T19:53:24.000Z,-1.30
2023-03-05T19:55:56.856Z,-1.30
2023-03-05T19:58:27.953Z,-1.30
2023-03-05T20:01:08.331Z,-1.30
2023-03-05T20:03:40.239Z,-1.30
2023-03-05T20:06:11.396Z,-1.30
2023-03-05T20:08:42.394Z,-1.30
2023-03-05T20:11:17.371Z,-1.30
2023-03-05T20:13:48.249Z,-1.20
2023-03-05T20:16:21.686Z,-1.20
2023-03-05T20:18:54.858Z,-1.20
2023-03-05T20:21:27.554Z,-1.30
2023-03-05T20:24:00.567Z,-1.30
2023-03-05T20:26:34.752Z,-1.30
2023-03-05T20:29:06.335Z,-1.30
2023-03-05T20:31:38.095Z,-1.30
2023-03-05T20:34:10.758Z,-1.30
2023-03-05T20:36:42.406Z,-1.30
2023-03-05T20:39:13.309Z,-1.30
2023-03-05T20:41:47.059Z,-1.30
2023-03-05T20:44:17.389Z,-1.30
2023-03-05T20:46:59.696Z,-1.20
2023-03-05T20:49:30.780Z,-1.20
2023-03-05T20:52:02.111Z,-1.20
2023-03-05T20:54:33.435Z,-1.20
2023-03-05T20:57:06.533Z,-1.20
2023-03-05T20:59:37.516Z,-1.10
2023-03-05T21:02:11.205Z,-1.10
2023-03-05T21:04:42.174Z,-1.00
2023-03-05T21:07:13.226Z,-1.00
2023-03-05T21:09:43.932Z,-1.00
2023-03-05T21:12:16.597Z,-1.00
2023-03-05T21:14:47.463Z,-1.00
2023-03-05T21:17:19.849Z,-1.00
2023-03-05T21:19:50.588Z,-1.00
2023-03-05T21:22:21.825Z,-1.00
2023-03-05T21:25:02.278Z,-1.10
2023-03-05T21:27:40.113Z,-1.10
2023-03-05T21:30:13.550Z,-1.10
2023-03-05T21:32:44.818Z,-1.10
2023-03-05T21:35:19.703Z,-1.10
2023-03-05T21:37:52.711Z,-1.10
2023-03-05T21:40:24.147Z,-1.10
2023-03-05T21:42:56.919Z,-1.10
2023-03-05T21:45:30.868Z,-1.10
2023-03-05T21:48:02.136Z,-1.20
2023-03-05T21:50:33.784Z,-1.20
2023-03-05T21:53:05.240Z,-1.20
2023-03-05T21:55:45.306Z,-1.10
2023-03-05T21:58:17.979Z,-1.10
2023-03-05T22:00:49.020Z,-1.10
2023-03-05T22:03:20.400Z,-1.10
2023-03-05T22:05:51.105Z,-1.10
2023-03-05T22:08:22.923Z,-1.10
2023-03-05T22:10:54.544Z,-1.10
2023-03-05T22:13:27.266Z,-1.10
2023-03-05T22:16:00.806Z,-1.10
2023-03-05T22:18:33.848Z,-1.10
2023-03-05T22:21:05.178Z,-1.10
2023-03-05T22:23:36.908Z,-1.10
2023-03-05T22:26:09.537Z,-1.20
2023-03-05T22:28:42.697Z,-1.20
2023-03-05T22:31:13.676Z,-1.20
2023-03-05T22:33:44.731Z,-1.20
2023-03-05T22:36:16.579Z,-1.10
2023-03-05T22:38:48.310Z,-1.10
2023-03-05T22:41:21.193Z,-1.10
2023-03-05T22:43:54.976Z,-1.10
2023-03-05T22:46:27.477Z,-1.10
2023-03-05T22:48:58.540Z,-1.10
2023-03-05T22:51:29.440Z,-1.20
2023-03-05T22:54:00.652Z,-1.20
2023-03-05T22:56:31.371Z,-1.30
2023-03-05T22:59:04.003Z,-1.30
2023-03-05T23:01:34.824Z,-1.30
2023-03-05T23:04:18.342Z,-1.30
2023-03-05T23:06:49.284Z,-1.40
2023-03-05T23:09:20.336Z,-1.40
2023-03-05T23:11:51.165Z,-1.50
2023-03-05T23:14:23.778Z,-1.60
2023-03-05T23:16:54.374Z,-1.70
2023-03-05T23:19:25.626Z,-1.80
2023-03-05T23:21:56.334Z,-1.90
2023-03-05T23:24:27.471Z,-2.10
2023-03-05T23:26:58.136Z,-2.20
2023-03-05T23:29:33.145Z,-2.40
2023-03-05T23:32:03.786Z,-2.50
2023-03-05T23:34:34.899Z,-2.60
2023-03-05T23:37:06.696Z,-2.70
2023-03-05T23:39:37.692Z,-2.70
2023-03-05T23:42:08.789Z,-2.90
2023-03-05T23:44:41.340Z,-2.80
2023-03-05T23:47:12.001Z,-2.90
2023-03-05T23:49:42.988Z,-3.00
2023-03-05T23:52:13.768Z,-3.00
2023-03-05T23:54:44.792Z,-3.10
2023-03-05T23:57:15.610Z,-3.10
2023-03-05T23:59:48.413Z,-3.10
